Yosemite National Park, California
Current Conditions -  °F | °C
As of 9:35 AM on Tuesday 21 Oct 2014 (Local Time) from KMMH Reporting Station
Clear Clear  
Wind Chill: 50°   Ceiling: Unl
Heat Index: 50°   Visibility: 10mi
Dew Point: 23°   Wind: 6mph
Humidity: 35%   Direction: 120°ESE
Pressure: 30.13"   Gusts: NA
Location:  37.6076°N, 119.603°W
Report Text: KMMH 211635Z AUTO 12005KT 10SM CLR 10/M05 A3013 RMK AO1
Loading
Personal Weather Stations






























Interactive Weather Map
Tropical Storm Tracking
New forecast layout! Learn more

10-Day Weather Forecast

Advertisements
Track Severe Weather on mobile